createdAt,value
2018-03-18T00:02:12.920Z,13.38
2018-03-18T00:04:43.872Z,16.90
2018-03-18T00:07:11.031Z,16.08
2018-03-18T00:09:37.677Z,16.58
2018-03-18T00:12:04.270Z,16.83
2018-03-18T00:14:32.003Z,17.05
2018-03-18T00:16:59.383Z,16.92
2018-03-18T00:19:25.996Z,17.73
2018-03-18T00:21:52.541Z,16.58
2018-03-18T00:24:20.021Z,16.27
2018-03-18T00:26:47.143Z,18.15
2018-03-18T00:29:13.673Z,21.00
2018-03-18T00:31:40.216Z,17.65
2018-03-18T00:34:06.776Z,18.90
2018-03-18T00:36:34.263Z,19.55
2018-03-18T00:39:01.326Z,19.87
2018-03-18T00:41:29.997Z,18.62
2018-03-18T00:43:57.527Z,21.00
2018-03-18T00:46:25.211Z,18.20
2018-03-18T00:48:52.074Z,20.52
2018-03-18T00:51:30.568Z,23.23
2018-03-18T00:53:57.099Z,24.10
2018-03-18T00:56:27.307Z,23.83
2018-03-18T00:58:53.912Z,19.85
2018-03-18T01:01:21.330Z,23.87
2018-03-18T01:03:47.872Z,24.20
2018-03-18T01:06:14.704Z,19.70
2018-03-18T01:08:45.051Z,26.50
2018-03-18T01:11:12.270Z,24.50
2018-03-18T01:13:38.893Z,23.58
2018-03-18T01:16:05.959Z,22.67
2018-03-18T01:18:35.995Z,22.37
2018-03-18T01:21:02.944Z,22.73
2018-03-18T01:23:30.640Z,20.52
2018-03-18T01:25:58.333Z,22.35
2018-03-18T01:28:24.864Z,24.45
2018-03-18T01:30:53.644Z,24.42
2018-03-18T01:33:20.152Z,23.10
2018-03-18T01:35:47.000Z,25.30
2018-03-18T01:38:13.473Z,25.65
2018-03-18T01:40:40.322Z,23.85
2018-03-18T01:43:07.918Z,22.05
2018-03-18T01:45:35.051Z,20.85
2018-03-18T01:48:01.784Z,24.42
2018-03-18T01:50:28.673Z,22.13
2018-03-18T01:53:07.281Z,26.10
2018-03-18T01:55:34.567Z,23.77
2018-03-18T01:58:01.417Z,23.58
2018-03-18T02:00:28.681Z,21.35
2018-03-18T02:02:56.341Z,28.87
2018-03-18T02:05:23.387Z,20.17
2018-03-18T02:07:54.093Z,25.70
2018-03-18T02:10:21.172Z,27.02
2018-03-18T02:12:48.096Z,24.60
2018-03-18T02:15:15.468Z,25.92
2018-03-18T02:17:42.205Z,23.65
2018-03-18T02:20:09.523Z,25.30
2018-03-18T02:22:37.264Z,24.25
2018-03-18T02:25:05.991Z,26.35
2018-03-18T02:27:32.492Z,25.52
2018-03-18T02:30:00.210Z,24.95
2018-03-18T02:32:26.749Z,27.37
2018-03-18T02:34:53.307Z,24.95
2018-03-18T02:37:22.036Z,21.83
2018-03-18T02:39:48.496Z,25.00
2018-03-18T02:42:15.058Z,25.88
2018-03-18T02:44:41.569Z,27.65
2018-03-18T02:47:08.411Z,25.00
2018-03-18T02:49:34.991Z,26.30
2018-03-18T02:52:01.460Z,25.75
2018-03-18T02:54:28.530Z,27.05
2018-03-18T02:56:55.465Z,27.70
2018-03-18T02:59:22.310Z,25.05
2018-03-18T03:01:48.908Z,29.12
2018-03-18T03:04:15.723Z,23.45
2018-03-18T03:06:43.147Z,28.33
2018-03-18T03:09:09.764Z,27.10
2018-03-18T03:11:37.820Z,27.67
2018-03-18T03:14:04.881Z,26.65
2018-03-18T03:16:31.799Z,27.00
2018-03-18T03:18:58.873Z,26.83
2018-03-18T03:21:25.778Z,27.02
2018-03-18T03:23:54.492Z,24.98
2018-03-18T03:26:22.180Z,26.55
2018-03-18T03:28:49.460Z,25.30
2018-03-18T03:31:20.179Z,26.55
2018-03-18T03:33:48.947Z,23.20
2018-03-18T03:36:16.620Z,26.30
2018-03-18T03:38:43.464Z,25.60
2018-03-18T03:41:10.024Z,26.30
2018-03-18T03:43:37.477Z,25.48
2018-03-18T03:46:04.508Z,22.83
2018-03-18T03:48:31.513Z,24.77
2018-03-18T03:50:58.803Z,23.62
2018-03-18T03:53:25.444Z,24.80
2018-03-18T03:55:52.052Z,21.87
2018-03-18T03:58:18.501Z,23.55
2018-03-18T04:00:45.251Z,24.42
2018-03-18T04:03:12.404Z,24.52
2018-03-18T04:05:39.045Z,24.33
2018-03-18T04:08:05.980Z,21.62
2018-03-18T04:10:33.032Z,24.73
2018-03-18T04:12:59.562Z,24.27
2018-03-18T04:15:26.399Z,20.55
2018-03-18T04:17:52.936Z,24.65
2018-03-18T04:20:19.468Z,23.95
2018-03-18T04:22:46.003Z,24.35
2018-03-18T04:25:12.549Z,22.45
2018-03-18T04:27:39.076Z,20.80
2018-03-18T04:30:05.699Z,22.02
2018-03-18T04:32:32.759Z,21.95
2018-03-18T04:35:00.853Z,22.75
2018-03-18T04:37:27.761Z,21.62
2018-03-18T04:39:54.827Z,22.95
2018-03-18T04:42:21.672Z,20.27
2018-03-18T04:44:48.516Z,20.17
2018-03-18T04:47:15.048Z,19.05
2018-03-18T04:49:41.941Z,22.10
2018-03-18T04:52:08.964Z,20.00
2018-03-18T04:54:35.972Z,19.83
2018-03-18T04:57:02.419Z,19.40
2018-03-18T04:59:28.963Z,17.37
2018-03-18T05:01:55.463Z,20.42
2018-03-18T05:04:22.091Z,21.35
2018-03-18T05:06:49.492Z,17.73
2018-03-18T05:09:16.020Z,18.27
2018-03-18T05:11:43.241Z,18.75
2018-03-18T05:14:11.002Z,18.02
2018-03-18T05:16:38.366Z,19.20
2018-03-18T05:19:04.913Z,16.67
2018-03-18T05:21:33.623Z,19.27
2018-03-18T05:24:00.535Z,19.75
2018-03-18T05:26:27.053Z,17.08
2018-03-18T05:28:54.495Z,19.05
2018-03-18T05:31:21.944Z,18.50
2018-03-18T05:33:49.089Z,19.12
2018-03-18T05:36:16.863Z,19.67
2018-03-18T05:38:44.782Z,16.40
2018-03-18T05:41:11.735Z,20.77
2018-03-18T05:43:38.258Z,18.90
2018-03-18T05:46:06.927Z,19.65
2018-03-18T05:48:33.475Z,18.37
2018-03-18T05:51:00.005Z,21.40
2018-03-18T05:53:27.070Z,22.13
2018-03-18T05:55:54.013Z,18.33
2018-03-18T05:58:20.929Z,21.25
2018-03-18T06:00:47.433Z,21.05
2018-03-18T06:03:13.907Z,16.55
2018-03-18T06:05:40.460Z,20.35
2018-03-18T06:08:06.983Z,20.88
2018-03-18T06:10:33.826Z,20.05
2018-03-18T06:13:01.928Z,19.77
2018-03-18T06:15:28.440Z,19.73
2018-03-18T06:17:56.511Z,22.15
2018-03-18T06:20:23.076Z,19.30
2018-03-18T06:22:49.578Z,21.62
2018-03-18T06:25:16.722Z,17.95
2018-03-18T06:27:44.857Z,14.57
2018-03-18T06:30:11.331Z,15.45
2018-03-18T06:32:37.868Z,14.65
2018-03-18T06:35:04.416Z,15.73
2018-03-18T06:37:31.359Z,18.15
2018-03-18T06:39:57.773Z,13.88
2018-03-18T06:42:25.248Z,15.60
2018-03-18T06:44:51.768Z,14.27
2018-03-18T06:47:19.332Z,11.85
2018-03-18T06:49:46.684Z,10.65
2018-03-18T06:52:13.220Z,9.60
2018-03-18T06:54:39.883Z,11.95
2018-03-18T06:57:06.992Z,9.65
2018-03-18T06:59:34.762Z,10.75
2018-03-18T07:02:02.559Z,11.07
2018-03-18T07:04:30.195Z,10.27
2018-03-18T07:06:56.738Z,12.20
2018-03-18T07:09:23.648Z,11.10
2018-03-18T07:11:50.191Z,11.02
2018-03-18T07:14:16.623Z,12.75
2018-03-18T07:16:43.285Z,12.57
2018-03-18T07:19:13.100Z,12.35
2018-03-18T07:21:39.628Z,14.87
2018-03-18T07:24:06.172Z,16.58
2018-03-18T07:26:32.698Z,10.68
2018-03-18T07:28:59.292Z,11.60
2018-03-18T07:31:27.078Z,13.05
2018-03-18T07:33:54.265Z,13.05
2018-03-18T07:36:21.366Z,11.27
2018-03-18T07:38:48.518Z,13.00
2018-03-18T07:41:15.300Z,11.93
2018-03-18T07:43:42.811Z,12.40
2018-03-18T07:46:10.819Z,16.62
2018-03-18T07:48:37.848Z,12.18
2018-03-18T07:51:04.809Z,12.27
2018-03-18T07:53:32.878Z,12.23
2018-03-18T07:55:59.475Z,14.02
2018-03-18T07:58:26.783Z,17.12
2018-03-18T08:00:55.020Z,13.23
2018-03-18T08:03:22.099Z,14.68
2018-03-18T08:05:49.563Z,11.38
2018-03-18T08:08:16.430Z,10.15
2018-03-18T08:10:43.853Z,10.27
2018-03-18T08:13:12.521Z,9.68
2018-03-18T08:15:44.960Z,9.13
2018-03-18T08:18:11.427Z,9.20
2018-03-18T08:20:38.284Z,7.80
2018-03-18T08:23:07.040Z,7.57
2018-03-18T08:25:33.508Z,7.20
2018-03-18T08:28:00.639Z,6.45
2018-03-18T08:30:28.499Z,4.57
2018-03-18T08:32:55.620Z,6.75
2018-03-18T08:35:22.419Z,5.25
2018-03-18T08:37:48.983Z,6.70
2018-03-18T08:40:15.500Z,8.02
2018-03-18T08:42:43.458Z,6.22
2018-03-18T08:45:10.385Z,9.13
2018-03-18T08:47:37.758Z,9.18
2018-03-18T08:50:06.979Z,10.25
2018-03-18T08:52:33.700Z,4.57
2018-03-18T08:55:01.191Z,5.37
2018-03-18T08:57:27.992Z,4.57
2018-03-18T08:59:58.876Z,4.95
2018-03-18T09:02:28.003Z,3.80
2018-03-18T09:04:54.781Z,3.95
2018-03-18T09:07:21.512Z,3.45
2018-03-18T09:09:52.101Z,5.93
2018-03-18T09:12:18.568Z,4.07
2018-03-18T09:14:46.097Z,3.40
2018-03-18T09:17:12.645Z,3.95
2018-03-18T09:19:39.131Z,4.57
2018-03-18T09:22:05.989Z,5.80
2018-03-18T09:24:33.693Z,4.62
2018-03-18T09:27:00.519Z,5.35
2018-03-18T09:29:29.329Z,3.87
2018-03-18T09:31:56.424Z,5.10
2018-03-18T09:34:23.917Z,7.93
2018-03-18T09:36:51.056Z,9.35
2018-03-18T09:39:18.201Z,7.12
2018-03-18T09:41:45.617Z,6.05
2018-03-18T09:44:12.436Z,5.53
2018-03-18T09:46:39.417Z,5.78
2018-03-18T09:49:06.139Z,7.55
2018-03-18T09:51:32.656Z,8.48
2018-03-18T09:54:00.781Z,7.40
2018-03-18T09:56:27.678Z,6.32
2018-03-18T09:58:58.083Z,6.03
2018-03-18T10:01:24.734Z,6.87
2018-03-18T10:03:51.232Z,6.62
2018-03-18T10:06:17.704Z,7.15
2018-03-18T10:08:45.772Z,7.53
2018-03-18T10:11:12.296Z,7.80
2018-03-18T10:13:39.171Z,8.70
2018-03-18T10:16:06.066Z,7.43
2018-03-18T10:18:33.252Z,9.13
2018-03-18T10:21:00.348Z,8.52
2018-03-18T10:23:27.801Z,6.60
2018-03-18T10:25:58.619Z,8.80
2018-03-18T10:28:25.464Z,9.02
2018-03-18T10:30:51.880Z,9.95
2018-03-18T10:33:18.364Z,7.85
2018-03-18T10:35:45.360Z,7.82
2018-03-18T10:38:12.124Z,7.53
2018-03-18T10:40:39.122Z,7.32
2018-03-18T10:43:05.908Z,7.05
2018-03-18T10:45:33.366Z,6.45
2018-03-18T10:47:59.845Z,7.05
2018-03-18T10:50:26.407Z,6.50
2018-03-18T10:52:53.315Z,6.93
2018-03-18T10:55:19.703Z,5.68
2018-03-18T10:57:46.933Z,6.20
2018-03-18T11:00:20.809Z,5.95
2018-03-18T11:02:49.021Z,6.18
2018-03-18T11:05:15.496Z,6.75
2018-03-18T11:07:41.955Z,6.40
2018-03-18T11:10:08.480Z,7.00
2018-03-18T11:12:35.435Z,6.68
2018-03-18T11:15:03.030Z,6.93
2018-03-18T11:17:29.429Z,7.00
2018-03-18T11:19:56.643Z,8.13
2018-03-18T11:22:23.456Z,7.22
2018-03-18T11:24:49.939Z,12.00
2018-03-18T11:27:16.417Z,18.92
2018-03-18T11:29:42.831Z,17.92
2018-03-18T11:32:09.810Z,15.77
2018-03-18T11:34:37.805Z,11.95
2018-03-18T11:37:04.719Z,9.23
2018-03-18T11:39:31.226Z,9.40
2018-03-18T11:41:57.897Z,9.90
2018-03-18T11:44:25.154Z,8.70
2018-03-18T11:46:51.583Z,9.93
2018-03-18T11:49:18.614Z,9.15
2018-03-18T11:51:45.025Z,7.57
2018-03-18T11:54:11.755Z,7.87
2018-03-18T11:56:38.962Z,9.18
2018-03-18T11:59:06.164Z,8.40
2018-03-18T12:01:32.558Z,10.40
2018-03-18T12:03:58.976Z,9.27
2018-03-18T12:06:25.908Z,11.48
2018-03-18T12:08:57.321Z,11.43
2018-03-18T12:11:24.237Z,9.77
2018-03-18T12:13:51.339Z,9.60
2018-03-18T12:16:18.118Z,9.50
2018-03-18T12:18:45.328Z,7.82
2018-03-18T12:21:12.173Z,7.57
2018-03-18T12:23:38.595Z,7.53
2018-03-18T12:26:05.016Z,8.70
2018-03-18T12:28:32.171Z,8.70
2018-03-18T12:30:58.576Z,11.80
2018-03-18T12:33:25.394Z,11.07
2018-03-18T12:35:52.173Z,10.80
2018-03-18T12:38:18.650Z,9.65
2018-03-18T12:40:50.850Z,11.32
2018-03-18T12:43:25.684Z,12.63
2018-03-18T12:45:52.080Z,9.18
2018-03-18T12:48:18.665Z,8.40
2018-03-18T12:50:45.993Z,9.27
2018-03-18T12:53:12.456Z,10.57
2018-03-18T12:55:39.315Z,10.93
2018-03-18T12:58:05.840Z,10.35
2018-03-18T13:00:32.405Z,10.95
2018-03-18T13:02:59.248Z,11.52
2018-03-18T13:05:26.120Z,13.05
2018-03-18T13:07:52.603Z,16.15
2018-03-18T13:10:19.052Z,18.60
2018-03-18T13:12:46.103Z,21.70
2018-03-18T13:15:12.898Z,17.05
2018-03-18T13:17:39.313Z,13.15
2018-03-18T13:20:07.104Z,6.80
2018-03-18T13:22:33.687Z,6.30
2018-03-18T13:25:00.928Z,6.57
2018-03-18T13:27:27.455Z,6.65
2018-03-18T13:29:53.884Z,5.65
2018-03-18T13:32:20.369Z,6.72
2018-03-18T13:34:47.247Z,6.07
2018-03-18T13:37:14.076Z,5.90
2018-03-18T13:39:40.884Z,5.28
2018-03-18T13:42:08.037Z,5.65
2018-03-18T13:44:34.449Z,6.80
2018-03-18T13:47:01.149Z,5.78
2018-03-18T13:49:29.744Z,6.05
2018-03-18T13:51:56.593Z,7.68
2018-03-18T13:54:23.067Z,8.27
2018-03-18T13:56:49.603Z,9.00
2018-03-18T13:59:16.768Z,8.45
2018-03-18T14:01:43.910Z,9.70
2018-03-18T14:04:11.041Z,12.25
2018-03-18T14:06:38.392Z,9.75
2018-03-18T14:09:04.958Z,9.20
2018-03-18T14:11:31.446Z,11.93
2018-03-18T14:13:57.868Z,18.58
2018-03-18T14:16:24.801Z,26.60
2018-03-18T14:18:51.938Z,19.80
2018-03-18T14:21:18.348Z,13.52
2018-03-18T14:23:45.197Z,12.55
2018-03-18T14:26:12.112Z,8.13
2018-03-18T14:28:38.776Z,9.00
2018-03-18T14:31:05.639Z,9.77
2018-03-18T14:33:33.822Z,11.48
2018-03-18T14:36:00.646Z,10.95
2018-03-18T14:38:27.085Z,11.00
2018-03-18T14:40:53.534Z,15.50
2018-03-18T14:43:20.333Z,11.85
2018-03-18T14:45:47.728Z,12.32
2018-03-18T14:48:14.215Z,22.23
2018-03-18T14:50:43.125Z,18.55
2018-03-18T14:53:09.597Z,18.67
2018-03-18T14:55:36.529Z,5.78
2018-03-18T14:58:03.069Z,4.35
2018-03-18T15:00:29.947Z,4.50
2018-03-18T15:02:56.792Z,3.85
2018-03-18T15:05:23.795Z,4.57
2018-03-18T15:07:50.286Z,6.75
2018-03-18T15:10:16.788Z,10.25
2018-03-18T15:12:43.639Z,9.15
2018-03-18T15:15:10.529Z,9.52
2018-03-18T15:17:38.690Z,8.75
2018-03-18T15:20:06.088Z,8.45
2018-03-18T15:22:32.980Z,6.95
2018-03-18T15:24:59.861Z,4.75
2018-03-18T15:27:26.419Z,5.03
2018-03-18T15:29:52.950Z,4.85
2018-03-18T15:32:19.929Z,4.50
2018-03-18T15:34:46.460Z,4.85
2018-03-18T15:37:12.855Z,4.18
2018-03-18T15:39:39.312Z,4.43
2018-03-18T15:42:06.155Z,4.05
2018-03-18T15:44:32.641Z,5.82
2018-03-18T15:46:59.510Z,5.30
2018-03-18T15:49:25.976Z,5.40
2018-03-18T15:51:52.878Z,4.78
2018-03-18T15:54:19.602Z,4.00
2018-03-18T15:56:46.064Z,5.00
2018-03-18T15:59:12.463Z,5.57
2018-03-18T16:01:39.245Z,6.60
2018-03-18T16:04:05.670Z,10.35
2018-03-18T16:06:32.851Z,7.30
2018-03-18T16:08:59.679Z,7.57
2018-03-18T16:11:26.465Z,7.00
2018-03-18T16:13:52.924Z,5.90
2018-03-18T16:16:20.822Z,6.22
2018-03-18T16:18:47.215Z,7.40
2018-03-18T16:21:14.197Z,5.22
2018-03-18T16:23:41.837Z,5.85
2018-03-18T16:26:10.308Z,6.12
2018-03-18T16:28:36.735Z,5.32
2018-03-18T16:31:12.333Z,5.15
2018-03-18T16:33:39.504Z,4.90
2018-03-18T16:36:07.187Z,5.05
2018-03-18T16:38:34.363Z,4.55
2018-03-18T16:41:01.125Z,4.65
2018-03-18T16:43:27.605Z,4.95
2018-03-18T16:45:54.496Z,4.35
2018-03-18T16:48:21.696Z,4.62
2018-03-18T16:50:48.183Z,5.30
2018-03-18T16:53:15.085Z,5.25
2018-03-18T16:55:41.925Z,5.40
2018-03-18T16:58:08.332Z,5.70
2018-03-18T17:00:36.448Z,5.15
2018-03-18T17:03:03.341Z,6.12
2018-03-18T17:05:30.808Z,6.35
2018-03-18T17:07:57.593Z,6.65
2018-03-18T17:10:24.057Z,6.25
2018-03-18T17:12:50.716Z,6.47
2018-03-18T17:15:17.552Z,6.87
2018-03-18T17:17:44.361Z,7.75
2018-03-18T17:20:10.878Z,7.22
2018-03-18T17:22:37.819Z,7.35
2018-03-18T17:25:04.624Z,7.93
2018-03-18T17:27:31.116Z,8.05
2018-03-18T17:29:58.900Z,9.73
2018-03-18T17:32:25.885Z,10.93
2018-03-18T17:34:52.738Z,9.57
2018-03-18T17:37:19.520Z,9.70
2018-03-18T17:39:45.946Z,9.35
2018-03-18T17:42:14.424Z,8.90
2018-03-18T17:44:54.224Z,9.75
2018-03-18T18:00:50.084Z,9.18
2018-03-18T18:03:16.901Z,7.82
2018-03-18T18:05:43.504Z,7.18
2018-03-18T18:08:09.905Z,8.10
2018-03-18T18:10:36.744Z,7.50
2018-03-18T18:13:03.168Z,7.00
2018-03-18T18:15:29.582Z,6.35
2018-03-18T18:17:56.351Z,6.45
2018-03-18T18:20:22.809Z,5.50
2018-03-18T18:22:50.013Z,5.65
2018-03-18T18:25:16.815Z,5.97
2018-03-18T18:27:43.283Z,6.40
2018-03-18T18:30:10.044Z,6.85
2018-03-18T18:32:36.479Z,5.95
2018-03-18T18:35:02.927Z,6.50
2018-03-18T18:37:29.692Z,6.75
2018-03-18T18:39:56.170Z,6.95
2018-03-18T18:42:22.568Z,5.97
2018-03-18T18:44:49.907Z,6.90
2018-03-18T18:47:16.335Z,6.78
2018-03-18T18:49:43.518Z,6.72
2018-03-18T18:52:09.920Z,6.32
2018-03-18T18:54:37.068Z,5.32
2018-03-18T18:57:04.266Z,6.93
2018-03-18T18:59:34.549Z,5.80
2018-03-18T19:02:01.282Z,5.72
2018-03-18T19:04:28.156Z,6.30
2018-03-18T19:06:55.160Z,5.57
2018-03-18T19:09:21.627Z,4.75
2018-03-18T19:11:48.085Z,4.82
2018-03-18T19:14:14.866Z,5.55
2018-03-18T19:16:41.259Z,5.10
2018-03-18T19:19:07.662Z,4.60
2018-03-18T19:21:34.436Z,5.55
2018-03-18T19:24:01.275Z,5.30
2018-03-18T19:26:28.409Z,5.12
2018-03-18T19:28:54.899Z,4.53
2018-03-18T19:31:21.659Z,4.95
2018-03-18T19:33:48.498Z,4.40
2018-03-18T19:36:15.383Z,4.40
2018-03-18T19:38:41.802Z,4.70
2018-03-18T19:41:08.633Z,4.40
2018-03-18T19:43:35.018Z,4.10
2018-03-18T19:46:01.593Z,4.03
2018-03-18T19:48:28.052Z,4.62
2018-03-18T19:50:54.705Z,5.28
2018-03-18T19:53:21.460Z,4.18
2018-03-18T19:55:48.025Z,5.05
2018-03-18T19:58:14.512Z,5.07
2018-03-18T20:00:40.916Z,4.97
2018-03-18T20:03:08.077Z,4.97
2018-03-18T20:05:34.477Z,4.97
2018-03-18T20:08:01.088Z,6.03
2018-03-18T20:10:27.554Z,5.57
2018-03-18T20:12:54.348Z,6.93
2018-03-18T20:15:21.140Z,6.65
2018-03-18T20:17:48.277Z,7.60
2018-03-18T20:20:15.179Z,7.80
2018-03-18T20:22:41.684Z,7.90
2018-03-18T20:25:08.525Z,9.68
2018-03-18T20:27:35.423Z,10.27
2018-03-18T20:30:03.250Z,10.38
2018-03-18T20:32:29.730Z,8.95
2018-03-18T20:34:56.129Z,9.88
2018-03-18T20:37:22.893Z,8.45
2018-03-18T20:39:49.284Z,9.13
2018-03-18T20:42:16.493Z,9.20
2018-03-18T20:44:43.276Z,8.80
2018-03-18T20:47:09.746Z,9.20
2018-03-18T20:49:36.204Z,8.90
2018-03-18T20:52:03.781Z,10.02
2018-03-18T20:54:30.728Z,10.23
2018-03-18T20:56:57.487Z,11.75
2018-03-18T20:59:23.884Z,10.63
2018-03-18T21:01:50.277Z,9.35
2018-03-18T21:04:16.667Z,9.10
2018-03-18T21:06:43.310Z,9.50
2018-03-18T21:09:10.153Z,11.15
2018-03-18T21:11:36.533Z,9.43
2018-03-18T21:14:03.012Z,9.20
2018-03-18T21:16:29.498Z,10.02
2018-03-18T21:18:56.302Z,9.75
2018-03-18T21:21:23.076Z,7.20
2018-03-18T21:23:50.220Z,7.00
2018-03-18T21:26:16.627Z,8.50
2018-03-18T21:28:43.399Z,8.95
2018-03-18T21:31:10.252Z,8.95
2018-03-18T21:33:37.109Z,8.07
2018-03-18T21:36:03.668Z,8.40
2018-03-18T21:38:30.477Z,8.20
2018-03-18T21:40:57.935Z,8.55
2018-03-18T21:43:24.419Z,8.52
2018-03-18T21:45:51.258Z,8.70
2018-03-18T21:48:17.713Z,10.10
2018-03-18T21:50:44.383Z,8.05
2018-03-18T21:53:10.794Z,9.40
2018-03-18T21:55:37.226Z,8.18
2018-03-18T21:58:03.756Z,6.60
2018-03-18T22:00:31.449Z,7.55
2018-03-18T22:02:57.905Z,6.00
2018-03-18T22:05:24.300Z,5.50
2018-03-18T22:07:51.922Z,5.75
2018-03-18T22:10:19.435Z,6.43
2018-03-18T22:12:46.204Z,5.47
2018-03-18T22:15:12.668Z,4.57
2018-03-18T22:17:39.484Z,5.05
2018-03-18T22:20:06.356Z,4.65
2018-03-18T22:22:33.212Z,5.00
2018-03-18T22:25:00.389Z,5.70
2018-03-18T22:27:26.822Z,5.20
2018-03-18T22:29:54.381Z,5.28
2018-03-18T22:32:21.140Z,5.50
2018-03-18T22:34:47.536Z,5.57
2018-03-18T22:37:14.085Z,5.65
2018-03-18T22:39:40.965Z,5.43
2018-03-18T22:42:07.401Z,5.87
2018-03-18T22:44:34.169Z,5.87
2018-03-18T22:47:01.092Z,5.85
2018-03-18T22:49:27.507Z,5.45
2018-03-18T22:51:54.270Z,6.50
2018-03-18T22:54:21.476Z,5.60
2018-03-18T22:56:48.224Z,5.37
2018-03-18T22:59:14.659Z,5.45
2018-03-18T23:01:41.868Z,5.85
2018-03-18T23:04:08.254Z,5.62
2018-03-18T23:06:34.639Z,4.90
2018-03-18T23:09:01.445Z,5.30
2018-03-18T23:11:27.841Z,5.00
2018-03-18T23:13:55.409Z,5.20
2018-03-18T23:16:22.311Z,5.07
2018-03-18T23:18:50.823Z,5.53
2018-03-18T23:21:17.639Z,5.78
2018-03-18T23:23:44.833Z,15.15
2018-03-18T23:26:11.211Z,6.85
2018-03-18T23:28:38.073Z,5.20
2018-03-18T23:31:04.872Z,4.72
2018-03-18T23:33:31.295Z,4.50
2018-03-18T23:35:57.699Z,4.25
2018-03-18T23:38:24.810Z,4.30
2018-03-18T23:40:51.374Z,4.70
2018-03-18T23:43:17.771Z,4.57
2018-03-18T23:45:44.554Z,4.60
2018-03-18T23:48:11.892Z,4.62
2018-03-18T23:50:38.333Z,4.93
2018-03-18T23:53:05.149Z,4.70
2018-03-18T23:55:32.021Z,5.10
2018-03-18T23:57:59.244Z,4.10
